createdAt,value
2023-05-09T00:01:31.717Z,6.61
2023-05-09T00:03:59.609Z,6.58
2023-05-09T00:06:27.912Z,6.62
2023-05-09T00:08:55.867Z,6.70
2023-05-09T00:11:23.309Z,6.58
2023-05-09T00:13:50.896Z,6.70
2023-05-09T00:16:18.754Z,6.75
2023-05-09T00:18:47.187Z,6.71
2023-05-09T00:21:14.553Z,6.71
2023-05-09T00:23:41.839Z,6.66
2023-05-09T00:26:10.165Z,6.55
2023-05-09T00:28:38.282Z,6.59
2023-05-09T00:31:05.677Z,6.63
2023-05-09T00:33:32.992Z,6.61
2023-05-09T00:36:00.362Z,6.56
2023-05-09T00:38:28.306Z,6.46
2023-05-09T00:40:55.699Z,6.45
2023-05-09T00:43:23.039Z,6.39
2023-05-09T00:45:50.420Z,6.31
2023-05-09T00:48:17.742Z,6.30
2023-05-09T00:50:45.088Z,6.28
2023-05-09T00:53:12.434Z,6.22
2023-05-09T00:55:40.078Z,6.21
2023-05-09T00:58:07.381Z,6.20
2023-05-09T01:00:34.691Z,6.25
2023-05-09T01:03:02.054Z,6.21
2023-05-09T01:05:44.567Z,6.19
2023-05-09T01:08:18.116Z,6.18
2023-05-09T01:11:12.641Z,6.08
2023-05-09T01:13:44.924Z,6.19
2023-05-09T01:16:49.625Z,6.21
2023-05-09T01:19:44.259Z,6.14
2023-05-09T01:22:12.201Z,6.21
2023-05-09T01:25:27.264Z,6.21
2023-05-09T01:28:29.490Z,6.15
2023-05-09T01:30:56.970Z,6.23
2023-05-09T01:33:24.376Z,6.13
2023-05-09T01:35:52.927Z,6.07
2023-05-09T01:38:22.052Z,5.86
2023-05-09T01:40:50.320Z,5.85
2023-05-09T01:43:17.959Z,5.78
2023-05-09T01:45:45.312Z,5.77
2023-05-09T01:48:12.588Z,5.85
2023-05-09T01:50:39.847Z,5.88
2023-05-09T01:53:07.161Z,5.77
2023-05-09T01:55:34.883Z,5.76
2023-05-09T01:58:06.238Z,5.57
2023-05-09T02:00:34.202Z,5.56
2023-05-09T02:03:02.131Z,5.64
2023-05-09T02:05:29.862Z,5.74
2023-05-09T02:07:58.584Z,5.77
2023-05-09T02:10:27.492Z,5.85
2023-05-09T02:12:55.165Z,5.95
2023-05-09T02:15:22.934Z,5.96
2023-05-09T02:17:51.490Z,6.01
2023-05-09T02:20:18.823Z,6.10
2023-05-09T02:22:46.120Z,6.14
2023-05-09T02:25:15.740Z,6.11
2023-05-09T02:27:44.256Z,6.07
2023-05-09T02:30:15.186Z,6.05
2023-05-09T02:32:43.443Z,5.92
2023-05-09T02:35:10.843Z,5.89
2023-05-09T02:37:39.048Z,5.85
2023-05-09T02:40:09.286Z,5.95
2023-05-09T02:42:36.747Z,5.99
2023-05-09T02:45:04.392Z,6.15
2023-05-09T02:47:31.991Z,6.13
2023-05-09T02:49:59.300Z,6.17
2023-05-09T02:52:26.540Z,6.22
2023-05-09T02:54:53.787Z,6.21
2023-05-09T02:57:21.354Z,6.12
2023-05-09T02:59:48.680Z,6.00
2023-05-09T03:02:16.800Z,6.10
2023-05-09T03:04:44.450Z,6.14
2023-05-09T03:07:12.170Z,6.23
2023-05-09T03:09:41.082Z,6.26
2023-05-09T03:12:08.627Z,6.23
2023-05-09T03:14:36.739Z,6.19
2023-05-09T03:17:04.075Z,6.20
2023-05-09T03:19:35.341Z,6.11
2023-05-09T03:22:02.683Z,6.14
2023-05-09T03:24:33.234Z,6.03
2023-05-09T03:27:00.566Z,6.18
2023-05-09T03:29:28.297Z,6.29
2023-05-09T03:31:55.746Z,6.28
2023-05-09T03:34:23.268Z,6.33
2023-05-09T03:36:50.620Z,6.34
2023-05-09T03:39:17.913Z,6.29
2023-05-09T03:41:48.866Z,6.42
2023-05-09T03:44:16.222Z,6.42
2023-05-09T03:46:43.531Z,6.27
2023-05-09T03:49:11.045Z,6.40
2023-05-09T03:51:39.995Z,6.51
2023-05-09T03:54:12.805Z,6.50
2023-05-09T03:56:40.870Z,6.57
2023-05-09T03:59:08.201Z,6.62
2023-05-09T04:04:04.468Z,6.66
2023-05-09T04:06:34.508Z,6.71
2023-05-09T04:09:03.129Z,6.76
2023-05-09T04:11:30.706Z,6.82
2023-05-09T04:13:59.581Z,6.79
2023-05-09T04:16:31.229Z,6.86
2023-05-09T04:18:59.252Z,6.72
2023-05-09T04:21:26.545Z,6.87
2023-05-09T04:23:56.922Z,6.92
2023-05-09T04:26:31.531Z,7.01
2023-05-09T04:28:59.872Z,7.04
2023-05-09T04:31:27.957Z,7.08
2023-05-09T04:33:58.359Z,7.15
2023-05-09T04:36:27.808Z,7.23
2023-05-09T04:38:57.627Z,7.33
2023-05-09T04:41:27.754Z,7.32
2023-05-09T04:43:56.320Z,7.46
2023-05-09T04:46:26.361Z,7.50
2023-05-09T04:48:54.219Z,7.61
2023-05-09T04:51:21.514Z,7.59
2023-05-09T04:53:49.995Z,7.70
2023-05-09T04:56:19.855Z,7.77
2023-05-09T04:58:48.771Z,7.81
2023-05-09T05:01:16.842Z,7.95
2023-05-09T05:03:44.672Z,7.90
2023-05-09T05:06:12.102Z,8.16
2023-05-09T05:08:41.703Z,8.18
2023-05-09T05:11:09.619Z,8.29
2023-05-09T05:13:36.977Z,8.31
2023-05-09T05:16:04.560Z,8.44
2023-05-09T05:18:31.952Z,8.61
2023-05-09T05:20:59.246Z,8.79
2023-05-09T05:23:27.420Z,8.84
2023-05-09T05:25:55.710Z,8.81
2023-05-09T05:28:23.565Z,8.86
2023-05-09T05:30:50.917Z,8.98
2023-05-09T05:33:18.228Z,9.17
2023-05-09T05:35:45.765Z,9.20
2023-05-09T05:38:14.311Z,9.16
2023-05-09T05:40:42.884Z,9.01
2023-05-09T05:43:10.497Z,8.88
2023-05-09T05:45:39.386Z,9.05
2023-05-09T05:48:09.487Z,9.21
2023-05-09T05:50:36.781Z,9.15
2023-05-09T05:53:04.591Z,9.27
2023-05-09T05:55:31.945Z,9.31
2023-05-09T05:57:59.334Z,9.54
2023-05-09T06:00:26.719Z,9.71
2023-05-09T06:03:01.474Z,9.76
2023-05-09T06:05:35.051Z,9.79
2023-05-09T06:08:02.406Z,9.87
2023-05-09T06:10:29.729Z,9.95
2023-05-09T06:12:57.059Z,9.82
2023-05-09T06:15:24.383Z,9.83
2023-05-09T06:17:51.701Z,10.40
2023-05-09T06:20:19.077Z,10.45
2023-05-09T06:22:46.409Z,10.60
2023-05-09T06:25:13.896Z,10.53
2023-05-09T06:27:42.188Z,10.30
2023-05-09T06:30:23.720Z,10.45
2023-05-09T06:32:52.640Z,10.59
2023-05-09T06:35:19.920Z,10.98
2023-05-09T06:37:48.573Z,11.02
2023-05-09T06:40:17.109Z,10.61
2023-05-09T06:42:44.940Z,10.60
2023-05-09T06:45:12.627Z,10.73
2023-05-09T06:47:40.139Z,10.74
2023-05-09T06:50:08.322Z,10.96
2023-05-09T06:52:35.987Z,11.17
2023-05-09T06:55:03.917Z,11.32
2023-05-09T06:57:31.304Z,11.27
2023-05-09T06:59:58.601Z,11.16
2023-05-09T07:02:26.048Z,11.30
2023-05-09T07:04:53.418Z,11.21
2023-05-09T07:07:20.730Z,11.36
2023-05-09T07:09:49.322Z,11.53
2023-05-09T07:12:20.150Z,11.52
2023-05-09T07:14:47.424Z,11.77
2023-05-09T07:17:23.040Z,11.88
2023-05-09T07:19:51.694Z,12.05
2023-05-09T07:22:19.282Z,12.09
2023-05-09T07:24:46.729Z,12.03
2023-05-09T07:27:14.054Z,12.20
2023-05-09T07:29:41.366Z,12.35
2023-05-09T07:32:08.922Z,12.44
2023-05-09T07:34:36.416Z,12.31
2023-05-09T07:37:03.780Z,12.70
2023-05-09T07:39:31.138Z,12.98
2023-05-09T07:41:58.513Z,12.75
2023-05-09T07:44:25.894Z,12.85
2023-05-09T07:46:55.448Z,12.97
2023-05-09T07:49:22.777Z,13.36
2023-05-09T07:51:50.044Z,13.56
2023-05-09T07:54:17.478Z,13.49
2023-05-09T07:56:44.764Z,13.66
2023-05-09T07:59:12.408Z,13.27
2023-05-09T08:01:39.698Z,13.70
2023-05-09T08:04:09.200Z,13.83
2023-05-09T08:06:36.758Z,14.09
2023-05-09T08:09:05.119Z,14.21
2023-05-09T08:11:36.058Z,14.53
2023-05-09T08:14:03.539Z,14.85
2023-05-09T08:16:31.170Z,14.67
2023-05-09T08:18:58.466Z,14.88
2023-05-09T08:21:26.669Z,14.66
2023-05-09T08:23:54.078Z,14.76
2023-05-09T08:26:22.748Z,14.91
2023-05-09T08:28:50.062Z,15.17
2023-05-09T08:31:17.570Z,15.21
2023-05-09T08:33:44.947Z,15.06
2023-05-09T08:36:12.251Z,15.32
2023-05-09T08:38:40.587Z,15.59
2023-05-09T08:41:08.005Z,15.84
2023-05-09T08:43:35.490Z,15.69
2023-05-09T08:46:08.030Z,15.87
2023-05-09T08:48:38.196Z,15.54
2023-05-09T08:51:06.300Z,15.23
2023-05-09T08:53:34.270Z,15.12
2023-05-09T08:56:02.978Z,15.18
2023-05-09T08:58:31.241Z,15.12
2023-05-09T09:00:58.509Z,15.19
2023-05-09T09:03:26.407Z,15.40
2023-05-09T09:05:54.491Z,15.67
2023-05-09T09:08:22.502Z,15.55
2023-05-09T09:10:49.867Z,15.84
2023-05-09T09:13:17.561Z,16.12
2023-05-09T09:15:46.322Z,16.24
2023-05-09T09:18:17.303Z,16.02
2023-05-09T09:21:06.723Z,15.89
2023-05-09T09:23:34.226Z,15.86
2023-05-09T09:26:02.251Z,15.97
2023-05-09T09:28:29.878Z,16.20
2023-05-09T09:30:57.146Z,15.87
2023-05-09T09:33:25.959Z,16.04
2023-05-09T09:35:54.597Z,16.20
2023-05-09T09:38:22.792Z,16.45
2023-05-09T09:40:54.787Z,16.26
2023-05-09T09:43:29.079Z,16.25
2023-05-09T09:45:57.225Z,16.55
2023-05-09T09:48:27.907Z,16.73
2023-05-09T09:50:56.958Z,16.20
2023-05-09T09:53:30.899Z,16.69
2023-05-09T09:55:58.611Z,16.84
2023-05-09T09:58:26.006Z,16.80
2023-05-09T10:01:09.354Z,17.04
2023-05-09T10:03:40.713Z,16.97
2023-05-09T10:06:14.751Z,17.20
2023-05-09T10:08:42.956Z,17.25
2023-05-09T10:11:10.494Z,17.68
2023-05-09T10:13:38.482Z,17.58
2023-05-09T10:16:06.128Z,17.32
2023-05-09T10:18:33.980Z,16.99
2023-05-09T10:21:03.446Z,16.44
2023-05-09T10:23:31.913Z,16.48
2023-05-09T10:26:18.880Z,17.12
2023-05-09T10:28:46.810Z,17.63
2023-05-09T10:31:28.377Z,17.68
2023-05-09T10:33:56.132Z,17.60
2023-05-09T10:36:26.436Z,17.95
2023-05-09T10:38:55.157Z,17.96
2023-05-09T10:41:22.655Z,17.69
2023-05-09T10:43:50.141Z,17.49
2023-05-09T10:46:17.823Z,16.81
2023-05-09T10:48:45.313Z,16.62
2023-05-09T10:51:12.673Z,16.86
2023-05-09T10:53:48.584Z,17.56
2023-05-09T10:56:35.984Z,18.01
2023-05-09T10:59:03.386Z,17.42
2023-05-09T11:01:39.258Z,17.40
2023-05-09T11:04:17.154Z,17.33
2023-05-09T11:06:49.494Z,17.39
2023-05-09T11:09:33.741Z,18.42
2023-05-09T11:12:21.959Z,18.44
2023-05-09T11:14:50.153Z,18.86
2023-05-09T11:17:24.632Z,19.22
2023-05-09T11:19:51.896Z,19.75
2023-05-09T11:22:28.645Z,19.89
2023-05-09T11:25:27.822Z,18.61
2023-05-09T11:27:58.830Z,17.99
2023-05-09T11:30:35.874Z,17.69
2023-05-09T11:33:03.632Z,18.06
2023-05-09T11:35:31.421Z,18.47
2023-05-09T11:38:07.781Z,18.37
2023-05-09T11:40:35.316Z,18.71
2023-05-09T11:43:02.710Z,19.08
2023-05-09T11:45:33.527Z,18.53
2023-05-09T11:48:01.463Z,18.15
2023-05-09T11:50:29.496Z,17.78
2023-05-09T11:52:56.891Z,17.82
2023-05-09T11:55:27.403Z,18.03
2023-05-09T11:57:54.873Z,17.52
2023-05-09T12:00:23.392Z,18.41
2023-05-09T12:02:51.518Z,18.68
2023-05-09T12:05:20.231Z,17.92
2023-05-09T12:07:47.699Z,17.84
2023-05-09T12:10:22.845Z,17.63
2023-05-09T12:12:51.742Z,17.52
2023-05-09T12:15:22.341Z,18.45
2023-05-09T12:18:05.915Z,18.77
2023-05-09T12:20:50.564Z,17.95
2023-05-09T12:23:18.128Z,18.11
2023-05-09T12:25:57.880Z,18.16
2023-05-09T12:28:25.621Z,17.96
2023-05-09T12:30:53.283Z,17.88
2023-05-09T12:33:22.802Z,17.82
2023-05-09T12:36:07.898Z,18.09
2023-05-09T12:38:38.138Z,18.01
2023-05-09T12:41:10.741Z,17.68
2023-05-09T12:43:47.981Z,17.89
2023-05-09T12:46:19.228Z,17.88
2023-05-09T12:48:47.586Z,18.05
2023-05-09T12:51:23.697Z,18.25
2023-05-09T12:53:50.993Z,18.08
2023-05-09T12:56:23.539Z,17.86
2023-05-09T12:58:52.364Z,17.91
2023-05-09T13:01:20.691Z,17.70
2023-05-09T13:04:06.203Z,17.84
2023-05-09T13:06:34.516Z,17.73
2023-05-09T13:09:05.764Z,17.93
2023-05-09T13:11:33.218Z,18.18
2023-05-09T13:14:02.410Z,18.44
2023-05-09T13:16:29.726Z,18.22
2023-05-09T13:18:57.017Z,18.27
2023-05-09T13:21:24.398Z,18.05
2023-05-09T13:23:52.203Z,18.11
2023-05-09T13:26:19.617Z,18.07
2023-05-09T13:28:46.979Z,18.10
2023-05-09T13:31:14.484Z,18.14
2023-05-09T13:33:41.867Z,18.45
2023-05-09T13:36:09.227Z,18.51
2023-05-09T13:38:40.442Z,18.40
2023-05-09T13:41:08.131Z,18.55
2023-05-09T13:43:35.842Z,18.10
2023-05-09T13:46:03.390Z,18.40
2023-05-09T13:48:30.723Z,18.22
2023-05-09T13:50:59.904Z,18.20
2023-05-09T13:53:27.502Z,18.23
2023-05-09T13:55:54.947Z,18.38
2023-05-09T13:58:22.722Z,18.64
2023-05-09T14:00:50.356Z,18.56
2023-05-09T14:03:17.818Z,19.24
2023-05-09T14:05:45.144Z,19.13
2023-05-09T14:08:12.497Z,19.17
2023-05-09T14:10:39.756Z,19.11
2023-05-09T14:13:08.506Z,19.08
2023-05-09T14:15:36.313Z,20.75
2023-05-09T14:18:03.897Z,20.01
2023-05-09T14:20:31.352Z,19.92
2023-05-09T14:23:00.746Z,19.96
2023-05-09T14:25:28.109Z,20.13
2023-05-09T14:27:55.398Z,19.83
2023-05-09T14:30:23.017Z,19.55
2023-05-09T14:32:50.898Z,19.27
2023-05-09T14:35:18.539Z,19.24
2023-05-09T14:37:45.963Z,18.56
2023-05-09T14:40:13.531Z,18.34
2023-05-09T14:42:41.190Z,18.18
2023-05-09T14:45:12.106Z,18.15
2023-05-09T14:47:39.518Z,18.03
2023-05-09T14:50:11.174Z,18.11
2023-05-09T14:52:39.564Z,18.06
2023-05-09T14:55:07.476Z,18.16
2023-05-09T14:57:34.855Z,18.17
2023-05-09T15:00:16.652Z,18.19
2023-05-09T15:02:48.312Z,18.18
2023-05-09T15:05:16.734Z,18.03
2023-05-09T15:07:44.032Z,17.95
2023-05-09T15:10:11.434Z,18.00
2023-05-09T15:12:38.710Z,18.04
2023-05-09T15:15:20.078Z,18.39
2023-05-09T15:17:47.442Z,18.69
2023-05-09T15:20:18.244Z,18.83
2023-05-09T15:22:46.751Z,18.75
2023-05-09T15:25:15.095Z,19.32
2023-05-09T15:27:42.591Z,18.95
2023-05-09T15:30:10.291Z,19.46
2023-05-09T15:32:40.820Z,21.18
2023-05-09T15:35:08.724Z,20.53
2023-05-09T15:37:36.485Z,22.12
2023-05-09T15:40:04.333Z,21.04
2023-05-09T15:42:31.705Z,20.93
2023-05-09T15:44:58.940Z,21.00
2023-05-09T15:47:26.309Z,21.86
2023-05-09T15:49:53.626Z,22.90
2023-05-09T15:52:20.943Z,23.07
2023-05-09T15:54:48.357Z,22.45
2023-05-09T15:57:16.872Z,22.85
2023-05-09T15:59:44.272Z,22.33
2023-05-09T16:02:12.422Z,22.69
2023-05-09T16:04:39.801Z,22.40
2023-05-09T16:07:08.639Z,22.63
2023-05-09T16:09:37.388Z,22.52
2023-05-09T16:12:05.447Z,22.35
2023-05-09T16:14:32.879Z,22.76
2023-05-09T16:17:00.214Z,20.25
2023-05-09T16:19:27.555Z,19.81
2023-05-09T16:21:56.253Z,19.16
2023-05-09T16:24:23.618Z,18.37
2023-05-09T16:26:50.912Z,18.24
2023-05-09T16:29:18.274Z,17.85
2023-05-09T16:31:45.816Z,17.50
2023-05-09T16:34:14.450Z,17.59
2023-05-09T16:36:44.119Z,17.16
2023-05-09T16:39:11.477Z,17.05
2023-05-09T16:41:38.809Z,17.03
2023-05-09T16:44:06.083Z,16.99
2023-05-09T16:46:33.450Z,16.91
2023-05-09T16:49:00.733Z,16.83
2023-05-09T16:51:28.080Z,16.70
2023-05-09T16:53:55.454Z,16.50
2023-05-09T16:56:23.393Z,16.53
2023-05-09T16:58:51.753Z,16.38
2023-05-09T17:01:19.161Z,16.28
2023-05-09T17:03:46.498Z,16.27
2023-05-09T17:06:14.004Z,16.18
2023-05-09T17:08:41.321Z,16.08
2023-05-09T17:11:09.071Z,15.93
2023-05-09T17:13:36.404Z,15.93
2023-05-09T17:16:03.935Z,15.83
2023-05-09T17:18:37.566Z,15.77
2023-05-09T17:21:05.611Z,15.74
2023-05-09T17:23:32.867Z,15.72
2023-05-09T17:26:01.695Z,15.61
2023-05-09T17:28:30.239Z,15.56
2023-05-09T17:30:59.084Z,15.54
2023-05-09T17:33:26.972Z,15.37
2023-05-09T17:35:54.703Z,15.37
2023-05-09T17:38:22.008Z,15.20
2023-05-09T17:40:49.320Z,15.16
2023-05-09T17:43:16.634Z,15.08
2023-05-09T17:45:44.346Z,15.01
2023-05-09T17:48:11.696Z,14.97
2023-05-09T17:50:39.006Z,14.85
2023-05-09T17:53:08.801Z,14.79
2023-05-09T17:55:39.174Z,14.73
2023-05-09T17:58:08.085Z,14.63
2023-05-09T18:00:35.507Z,14.53
2023-05-09T18:03:04.098Z,14.45
2023-05-09T18:05:31.579Z,14.44
2023-05-09T18:08:00.889Z,14.41
2023-05-09T18:10:28.861Z,14.37
2023-05-09T18:12:56.280Z,14.21
2023-05-09T18:15:24.360Z,14.21
2023-05-09T18:17:53.773Z,14.21
2023-05-09T18:20:21.195Z,14.26
2023-05-09T18:22:48.618Z,14.21
2023-05-09T18:25:17.090Z,14.17
2023-05-09T18:27:44.443Z,14.17
2023-05-09T18:30:12.255Z,14.18
2023-05-09T18:32:40.540Z,14.04
2023-05-09T18:35:08.508Z,13.96
2023-05-09T18:37:36.930Z,13.97
2023-05-09T18:40:05.479Z,13.92
2023-05-09T18:42:32.789Z,13.84
2023-05-09T18:45:00.986Z,13.85
2023-05-09T18:47:28.406Z,13.82
2023-05-09T18:49:55.719Z,13.86
2023-05-09T18:52:24.240Z,13.87
2023-05-09T18:54:51.532Z,13.82
2023-05-09T18:57:20.000Z,13.80
2023-05-09T18:59:47.615Z,13.78
2023-05-09T19:02:14.876Z,13.78
2023-05-09T19:04:46.097Z,13.71
2023-05-09T19:07:15.062Z,13.65
2023-05-09T19:09:42.380Z,13.63
2023-05-09T19:12:09.831Z,13.61
2023-05-09T19:14:38.087Z,13.59
2023-05-09T19:17:07.794Z,13.54
2023-05-09T19:19:35.164Z,13.60
2023-05-09T19:22:02.405Z,13.54
2023-05-09T19:24:32.066Z,13.53
2023-05-09T19:26:59.408Z,13.35
2023-05-09T19:29:26.915Z,13.38
2023-05-09T19:31:56.647Z,13.19
2023-05-09T19:34:24.010Z,13.08
2023-05-09T19:36:52.607Z,12.86
2023-05-09T19:39:19.860Z,12.76
2023-05-09T19:41:47.226Z,12.75
2023-05-09T19:44:14.545Z,12.61
2023-05-09T19:46:43.132Z,12.53
2023-05-09T19:49:10.675Z,12.56
2023-05-09T19:51:38.374Z,12.49
2023-05-09T19:54:05.913Z,12.38
2023-05-09T19:56:33.195Z,12.30
2023-05-09T19:59:00.545Z,12.18
2023-05-09T20:01:28.404Z,12.17
2023-05-09T20:03:56.841Z,12.09
2023-05-09T20:06:25.434Z,12.02
2023-05-09T20:08:52.717Z,11.87
2023-05-09T20:11:21.009Z,11.86
2023-05-09T20:13:48.348Z,11.82
2023-05-09T20:16:15.834Z,11.83
2023-05-09T20:18:44.340Z,11.76
2023-05-09T20:21:11.710Z,11.74
2023-05-09T20:23:39.685Z,11.72
2023-05-09T20:26:06.980Z,11.54
2023-05-09T20:28:34.319Z,11.31
2023-05-09T20:31:01.581Z,11.26
2023-05-09T20:33:29.139Z,11.25
2023-05-09T20:35:56.425Z,11.12
2023-05-09T20:38:23.736Z,11.00
2023-05-09T20:40:51.032Z,10.99
2023-05-09T20:43:19.244Z,10.88
2023-05-09T20:45:46.569Z,10.96
2023-05-09T20:48:13.873Z,10.89
2023-05-09T20:50:41.173Z,10.82
2023-05-09T20:53:08.498Z,10.78
2023-05-09T20:55:35.842Z,10.62
2023-05-09T20:58:03.193Z,10.45
2023-05-09T21:00:30.611Z,10.58
2023-05-09T21:02:58.816Z,10.50
2023-05-09T21:05:26.382Z,10.34
2023-05-09T21:07:53.689Z,10.33
2023-05-09T21:10:21.089Z,10.25
2023-05-09T21:12:48.557Z,10.25
2023-05-09T21:15:16.039Z,10.26
2023-05-09T21:17:43.428Z,10.21
2023-05-09T21:20:11.126Z,10.26
2023-05-09T21:22:38.475Z,10.19
2023-05-09T21:25:06.479Z,10.28
2023-05-09T21:27:33.755Z,10.04
2023-05-09T21:30:01.046Z,9.98
2023-05-09T21:32:28.722Z,9.88
2023-05-09T21:34:56.070Z,10.04
2023-05-09T21:37:23.422Z,10.09
2023-05-09T21:39:50.808Z,10.01
2023-05-09T21:42:18.173Z,10.00
2023-05-09T21:44:45.485Z,9.81
2023-05-09T21:47:12.936Z,9.79
2023-05-09T21:49:40.842Z,9.62
2023-05-09T21:52:08.211Z,9.61
2023-05-09T21:54:35.709Z,9.54
2023-05-09T21:57:03.037Z,9.65
2023-05-09T21:59:30.401Z,9.37
2023-05-09T22:01:57.771Z,9.31
2023-05-09T22:04:25.076Z,9.40
2023-05-09T22:06:52.381Z,9.26
2023-05-09T22:09:19.707Z,9.25
2023-05-09T22:11:47.048Z,9.12
2023-05-09T22:14:14.336Z,9.14
2023-05-09T22:16:41.688Z,9.10
2023-05-09T22:19:09.059Z,9.06
2023-05-09T22:21:36.362Z,9.09
2023-05-09T22:24:03.903Z,9.20
2023-05-09T22:26:31.163Z,9.11
2023-05-09T22:28:58.477Z,9.13
2023-05-09T22:31:25.854Z,9.10
2023-05-09T22:33:53.166Z,8.92
2023-05-09T22:36:20.440Z,8.84
2023-05-09T22:38:47.677Z,8.87
2023-05-09T22:41:14.909Z,8.90
2023-05-09T22:43:42.229Z,8.78
2023-05-09T22:46:09.499Z,8.81
2023-05-09T22:48:36.792Z,8.77
2023-05-09T22:51:04.070Z,8.35
2023-05-09T22:53:31.364Z,8.35
2023-05-09T22:55:58.777Z,8.47
2023-05-09T22:58:26.469Z,8.44
2023-05-09T23:00:53.795Z,8.23
2023-05-09T23:03:21.830Z,8.07
2023-05-09T23:05:49.254Z,8.02
2023-05-09T23:08:16.552Z,7.94
2023-05-09T23:10:44.184Z,8.10
2023-05-09T23:13:12.336Z,8.06
2023-05-09T23:15:39.731Z,8.22
2023-05-09T23:18:09.907Z,8.22
2023-05-09T23:20:37.251Z,8.14
2023-05-09T23:23:04.777Z,8.09
2023-05-09T23:25:32.118Z,7.97
2023-05-09T23:27:59.384Z,7.97
2023-05-09T23:30:26.644Z,8.00
2023-05-09T23:32:54.076Z,8.02
2023-05-09T23:35:22.286Z,7.92
2023-05-09T23:37:49.522Z,7.79
2023-05-09T23:40:16.865Z,7.61
2023-05-09T23:42:44.346Z,7.65
2023-05-09T23:45:12.696Z,7.59
2023-05-09T23:47:39.980Z,7.58
2023-05-09T23:50:07.914Z,7.68
2023-05-09T23:52:35.186Z,7.61
2023-05-09T23:55:02.534Z,7.68
2023-05-09T23:57:29.829Z,7.74
2023-05-09T23:59:57.109Z,7.45
